NCAR-RAP Real-Time Weather Data

Output produced by METARs form (16 August 2018  19:23 UTC)
found at http://weather.rap.ucar.edu/surface/
 
RJCW 160900Z 07018KT 9999 -SHRA FEW010 SCT030 BKN080 14/12 Q1009
RJCW 160800Z 06015G25KT 9999 -SHRA FEW008 BKN010 BKN030 14/13 Q1009
RJCW 160700Z 06014KT 8000 -SHRA FEW006 BKN010 BKN030 14/13 Q1010
RJCW 160600Z 06017KT 8000 -SHRA FEW010 SCT030 BKN080 14/13 Q1010
RJCW 160500Z 06019KT 8000 -SHRA FEW008 BKN010 BKN080 14/13 Q1010
RJCW 160400Z 06019KT 8000 -SHRA FEW008 SCT010 BKN020 14/13 Q1010
RJCW 160300Z 07017KT 8000 -SHRA FEW005 SCT009 BKN030 14/13 Q1010
RJCW 160235Z 07015KT 8000 -SHRA FEW005 BKN009 BKN030 14/13 Q1011 RMK 1ST005 5ST009 7CU030 A2985
RJCW 160200Z 08016KT 8000 -SHRA FEW005 SCT010 BKN030 15/14 Q1010
RJCW 160100Z 08015KT 8000 -SHRA FEW005 SCT010 BKN080 15/13 Q1011
RJCW 160000Z 07015KT 9999 -SHRA FEW005 SCT015 BKN020 15/14 Q1011
RJCW 152330Z 07017KT 9999 -SHRA FEW010 SCT015 BKN020 15/14 Q1011
RJCW 150900Z 09010KT 9999 FEW008 BKN012 16/14 Q1013
RJCW 150800Z 09011KT 9999 FEW008 BKN012 17/14 Q1013
RJCW 150700Z 09012KT 9999 FEW008 BKN010 17/15 Q1013
RJCW 150600Z 09014KT 9999 FEW008 BKN010 17/15 Q1014
RJCW 150500Z 09014KT 9999 -SHRA FEW008 BKN010 17/15 Q1014
RJCW 150400Z 09015KT 9999 FEW008 BKN009 BKN010 17/15 Q1014
RJCW 150300Z 08014KT 9999 -SHRA FEW007 BKN009 17/15 Q1014
RJCW 150200Z 10012KT 9999 -SHRA FEW007 BKN009 BKN010 17/15 Q1014
RJCW 150114Z 09016KT 9999 FEW005 SCT008 BKN009 18/16 Q1014 RMK 1ST005 4ST008 7ST009 A2995
RJCW 150100Z 08012KT 9999 -DZ FEW005 BKN008 BKN009 17/16 Q1014
RJCW 150000Z 09012KT 9999 -DZ FEW005 BKN007 17/16 Q1014
RJCW 142330Z 09009KT 9999 -DZ FEW004 SCT005 BKN006 17/16 Q1014
RJCW 140912Z 11007KT 9999 FEW006 BKN008 BKN/// 18/17 Q1013 RMK 1ST006 5ST008 A2991
RJCW 140900Z 11007KT 9999 FEW006 SCT008 BKN/// 18/17 Q1013
RJCW 140800Z 11009KT 9999 FEW007 SCT010 BKN/// 19/17 Q1012